Flight Track Log - Related Links

Times and Time Zones

All times are in EDT time to prevent confusion due to time zone crossing. See the FDX1570 flight status page for this flight to view local times or setup timezone preferences in your user account.

Time Position Orientation Groundspeed Altitude Reporting Facility
EDT Latitude Longitude Course Direction KTS MPH feet Rate Location/Type
Tue 04:20:51 AM 35.0167 -89.9667 165° South 182 209 1,100  Level KMEM
Tue 04:21:51 AM 34.9667 -89.9500 165° South 221 254 2,800 2,050 Climbing KMEM
Tue 04:22:51 AM 34.9833 -89.8667 76° East 273 314 5,200 2,646 Climbing KMEM
Tue 04:23:58 AM 35.0167 -89.7833 64° Northeast 281 323 8,400 2,323 Climbing KMEM
Tue 04:25:26 AM 35.0617 -89.6467 68° East 320 368 11,200 1,865 Climbing Memphis Center
Tue 04:26:26 AM 35.1025 -89.5272 67° East 354 407 13,000 2,050 Climbing Memphis Center
Tue 04:27:26 AM 35.1456 -89.4047 67° East 384 442 15,300 2,200 Climbing Memphis Center
Tue 04:28:26 AM 35.1986 -89.2594 66° East 406 467 17,400 2,100 Climbing Memphis Center
Tue 04:29:26 AM 35.2494 -89.1239 65° Northeast 426 490 19,500 1,850 Climbing Memphis Center
Tue 04:30:26 AM 35.3169 -88.9906 58° Northeast 437 503 21,100 1,650 Climbing Memphis Center
Tue 04:31:26 AM 35.3861 -88.8544 58° Northeast 459 528 22,800 1,600 Climbing Memphis Center
Tue 04:32:26 AM 35.4575 -88.7156 58° Northeast 470 541 24,300 1,766 Climbing Memphis Center
Tue 04:38:07 AM 35.8920 -87.8650 58° Northeast 508 585 34,600 1,802 Climbing FlightAware ADS-B
Tue 04:38:49 AM 35.9440 -87.7610 58° Northeast 505 581 35,800 1,683 Climbing FlightAware ADS-B
Tue 04:39:29 AM 35.9930 -87.6640 58° Northeast 500 575 36,900 857 Climbing FlightAware ADS-B
Tue 04:40:13 AM 36.0460 -87.5580 58° Northeast 509 586 37,000 75 Climbing FlightAware ADS-B
Tue 04:40:49 AM 36.0910 -87.4660 59° Northeast 512 589 37,000  Level FlightAware ADS-B
Tue 04:41:29 AM 36.1410 -87.3660 58° Northeast 516 594 37,000  Level FlightAware ADS-B
Tue 04:42:09 AM 36.1900 -87.2680 58° Northeast 517 595 37,000  Level FlightAware ADS-B
Tue 04:42:53 AM 36.2450 -87.1570 58° Northeast 516 594 37,000  Level FlightAware ADS-B
Tue 04:43:34 AM 36.2920 -87.0580 59° Northeast 516 594 37,000  Level FlightAware ADS-B
Tue 04:44:18 AM 36.3500 -86.9420 58° Northeast 516 594 37,000  Level FlightAware ADS-B
Tue 04:44:58 AM 36.4000 -86.8380 59° Northeast 518 596 37,000  Level FlightAware ADS-B
Tue 04:45:42 AM 36.4540 -86.7260 59° Northeast 518 596 37,000  Level FlightAware ADS-B
Tue 04:46:24 AM 36.5070 -86.6180 59° Northeast 519 597 37,000  Level FlightAware ADS-B
Tue 04:47:04 AM 36.5520 -86.5240 59° Northeast 520 598 37,000  Level FlightAware ADS-B
Tue 04:48:07 AM 36.6270 -86.3690 59° Northeast 522 601 37,000  Level FlightAware ADS-B
Tue 04:48:57 AM 36.6910 -86.2350 59° Northeast 521 600 37,000  Level FlightAware ADS-B
Tue 04:49:35 AM 36.7350 -86.1420 59° Northeast 522 601 37,000  Level FlightAware ADS-B
Tue 04:49:53 AM 36.7639 -86.0831 59° Northeast 523 602 37,000  Level FlightAware ADS-B
Tue 04:50:24 AM 36.8029 -86.0002 60° Northeast 523 602 37,000  Level FlightAware ADS-B
Tue 04:50:54 AM 36.8400 -85.9224 59° Northeast 523 602 37,000  Level FlightAware ADS-B
Tue 04:51:26 AM 36.8789 -85.8390 60° Northeast 523 602 37,000  Level FlightAware ADS-B
Tue 04:52:05 AM 36.9267 -85.7400 59° Northeast 524 603 37,000  Level FlightAware ADS-B
Tue 04:52:55 AM 36.9860 -85.6150 59° Northeast 526 605 37,000  Level FlightAware ADS-B
Tue 04:53:46 AM 37.0450 -85.4860 60° Northeast 527 606 37,000  Level FlightAware ADS-B
Tue 04:54:21 AM 37.0910 -85.3890 59° Northeast 527 606 37,000  Level FlightAware ADS-B
Tue 04:54:56 AM 37.1300 -85.3040 60° Northeast 526 605 37,000  Level FlightAware ADS-B
Tue 04:55:46 AM 37.1978 -85.1594 59° Northeast 526 605 37,000  Level FlightAware ADS-B
Tue 04:56:22 AM 37.2416 -85.0644 60° Northeast 526 605 37,000  Level FlightAware ADS-B
Tue 04:57:09 AM 37.2998 -84.9378 60° Northeast 526 605 37,000  Level FlightAware ADS-B
Tue 04:57:59 AM 37.3560 -84.8160 60° Northeast 527 606 37,000  Level FlightAware ADS-B
Tue 04:58:34 AM 37.4025 -84.7127 60° Northeast 527 606 37,000  Level FlightAware ADS-B
Tue 04:59:12 AM 37.4482 -84.6115 60° Northeast 529 609 37,000  Level FlightAware ADS-B
Tue 04:59:59 AM 37.4980 -84.5050 59° Northeast 528 608 37,000  Level FlightAware ADS-B
Tue 05:00:43 AM 37.5580 -84.3714 60° Northeast 529 609 37,000  Level FlightAware ADS-B
Tue 05:01:27 AM 37.6060 -84.2640 61° Northeast 528 608 37,000  Level FlightAware ADS-B
Tue 05:01:56 AM 37.6460 -84.1790 59° Northeast 529 609 37,000  Level FlightAware ADS-B
Tue 05:02:45 AM 37.7030 -84.0650 58° Northeast 530 610 37,000  Level FlightAware ADS-B
Tue 05:03:21 AM 37.7420 -83.9850 58° Northeast 530 610 37,000  Level FlightAware ADS-B
Tue 05:04:09 AM 37.7950 -83.8780 58° Northeast 530 610 37,000  Level FlightAware ADS-B
Tue 05:04:43 AM 37.8330 -83.8010 58° Northeast 530 610 37,000  Level FlightAware ADS-B
Tue 05:05:32 AM 37.8870 -83.6920 58° Northeast 530 610 37,000  Level FlightAware ADS-B
Tue 05:06:10 AM 37.9290 -83.6070 58° Northeast 530 610 37,000  Level FlightAware ADS-B
Tue 05:06:47 AM 37.9700 -83.5240 58° Northeast 530 610 37,000  Level FlightAware ADS-B
Tue 05:07:22 AM 38.0080 -83.4450 59° Northeast 530 610 37,000  Level FlightAware ADS-B
Tue 05:08:10 AM 38.1850 -83.2370 43° Northeast 535 616 37,000  Level FlightAware ADS-B
Tue 05:08:46 AM 38.2410 -83.1380 54° Northeast 535 616 37,000  Level FlightAware ADS-B
Tue 05:09:30 AM 38.3050 -83.0250 54° Northeast 536 617 37,000  Level FlightAware ADS-B
Tue 05:10:12 AM 38.3650 -82.9200 54° Northeast 539 620 37,000  Level FlightAware ADS-B
Tue 05:10:52 AM 38.4240 -82.8140 55° Northeast 540 621 37,000  Level FlightAware ADS-B
Tue 05:11:36 AM 38.4880 -82.7000 54° Northeast 541 623 37,000  Level FlightAware ADS-B
Tue 05:12:10 AM 38.5350 -82.6170 54° Northeast 542 624 37,000  Level FlightAware ADS-B
Tue 05:12:57 AM 38.6030 -82.4940 55° Northeast 542 624 37,000  Level FlightAware ADS-B
Tue 05:13:34 AM 38.6560 -82.4000 54° Northeast 543 625 37,000  Level FlightAware ADS-B
Tue 05:14:23 AM 38.7290 -82.2660 55° Northeast 544 626 37,000  Level FlightAware ADS-B
Tue 05:15:06 AM 38.7930 -82.1500 55° Northeast 544 626 37,000  Level FlightAware ADS-B
Tue 05:15:48 AM 38.8550 -82.0390 54° Northeast 542 624 37,000  Level FlightAware ADS-B
Tue 05:16:31 AM 38.9150 -81.9290 55° Northeast 542 624 37,000  Level FlightAware ADS-B
Tue 05:17:10 AM 38.9710 -81.8260 55° Northeast 544 626 37,000  Level FlightAware ADS-B
Tue 05:17:54 AM 39.0350 -81.7090 55° Northeast 545 627 37,000  Level FlightAware ADS-B
Tue 05:18:34 AM 39.0910 -81.6050 55° Northeast 544 626 37,000  Level FlightAware ADS-B
Tue 05:19:18 AM 39.1560 -81.4860 55° Northeast 541 623 37,000  Level FlightAware ADS-B
Tue 05:19:58 AM 39.2130 -81.3800 55° Northeast 539 620 37,000  Level FlightAware ADS-B
Tue 05:20:35 AM 39.2660 -81.2800 56° Northeast 539 620 37,000  Level FlightAware ADS-B
Tue 05:21:15 AM 39.3220 -81.1770 55° Northeast 540 621 37,000  Level FlightAware ADS-B
Tue 05:22:00 AM 39.3860 -81.0570 55° Northeast 539 620 37,000  Level FlightAware ADS-B
Tue 05:22:35 AM 39.4360 -80.9610 56° Northeast 540 621 37,000  Level FlightAware ADS-B
Tue 05:23:16 AM 39.4930 -80.8540 55° Northeast 541 623 37,000  Level FlightAware ADS-B
Tue 05:23:55 AM 39.5480 -80.7470 56° Northeast 541 623 37,000  Level FlightAware ADS-B
Tue 05:24:35 AM 39.6050 -80.6400 55° Northeast 542 624 37,000  Level FlightAware ADS-B
Tue 05:25:15 AM 39.6610 -80.5310 56° Northeast 543 625 37,000  Level FlightAware ADS-B
Tue 05:25:55 AM 39.7170 -80.4230 56° Northeast 544 626 37,000  Level FlightAware ADS-B
Tue 05:26:30 AM 39.7640 -80.3300 57° Northeast 546 628 37,000  Level FlightAware ADS-B
Tue 05:27:20 AM 39.8340 -80.1930 56° Northeast 547 629 37,000  Level FlightAware ADS-B
Tue 05:28:00 AM 39.8880 -80.0860 57° Northeast 546 628 37,000  Level FlightAware ADS-B
Tue 05:28:45 AM 39.9520 -79.9600 56° Northeast 547 629 37,000  Level FlightAware ADS-B
Tue 05:29:24 AM 40.0080 -79.8500 56° Northeast 547 629 37,000  Level FlightAware ADS-B
Tue 05:30:00 AM 40.0570 -79.7530 57° Northeast 548 631 37,000  Level FlightAware ADS-B
Tue 05:30:42 AM 40.1160 -79.6340 57° Northeast 549 632 37,000  Level FlightAware ADS-B
Tue 05:31:26 AM 40.1780 -79.5120 56° Northeast 550 633 37,000  Level FlightAware ADS-B
Tue 05:32:06 AM 40.2320 -79.4030 57° Northeast 548 631 37,000  Level FlightAware ADS-B
Tue 05:32:50 AM 40.2920 -79.2810 57° Northeast 547 629 37,000  Level FlightAware ADS-B
Tue 05:33:30 AM 40.3470 -79.1700 57° Northeast 546 628 37,000  Level FlightAware ADS-B
Tue 05:34:10 AM 40.4030 -79.0560 57° Northeast 545 627 37,000  Level FlightAware ADS-B
Tue 05:34:46 AM 40.4520 -78.9560 57° Northeast 545 627 37,000  Level FlightAware ADS-B
Tue 05:35:30 AM 40.5130 -78.8330 57° Northeast 544 626 37,000  Level FlightAware ADS-B
Tue 05:36:09 AM 40.5640 -78.7270 58° Northeast 543 625 37,000  Level FlightAware ADS-B
Tue 05:36:46 AM 40.6130 -78.6270 57° Northeast 542 624 37,000  Level FlightAware ADS-B
Tue 05:37:28 AM 40.6700 -78.5080 58° Northeast 540 621 37,000  Level FlightAware ADS-B
Tue 05:37:39 AM 40.6856 -78.4747 58° Northeast 541 623 37,000  Level FlightAware ADS-B
Tue 05:38:11 AM 40.7210 -78.4030 57° Northeast 539 620 37,000  Level FlightAware ADS-B
Tue 05:38:36 AM 40.7625 -78.3167 58° Northeast 540 621 37,000  Level FlightAware ADS-B
Tue 05:39:33 AM 40.8360 -78.1620 58° Northeast 531 611 37,000  Level FlightAware ADS-B
Tue 05:40:09 AM 40.8800 -78.0700 58° Northeast 531 611 37,000 -72 Level FlightAware ADS-B
Tue 05:40:56 AM 40.9390 -77.9460 58° Northeast 532 612 36,900 -759 Descending FlightAware ADS-B
Tue 05:41:36 AM 40.9870 -77.8390 59° Northeast 536 617 35,900 -1,975 Descending FlightAware ADS-B
Tue 05:42:15 AM 41.0439 -77.7084 60° Northeast 533 613 34,300 -2,432 Descending FlightAware ADS-B
Tue 05:42:50 AM 41.0881 -77.6074 60° Northeast 530 610 32,900 -2,471 Descending FlightAware ADS-B
Tue 05:43:23 AM 41.1293 -77.5144 60° Northeast 533 613 31,500 -2,328 Descending FlightAware ADS-B
Tue 05:43:57 AM 41.1706 -77.4195 60° Northeast 523 602 30,300 -1,364 Descending FlightAware ADS-B
Tue 05:45:13 AM 41.2608 -77.2132 60° Northeast 495 570 29,000 -736 Descending FlightAware ADS-B
Tue 05:45:43 AM 41.2946 -77.1362 60° Northeast 476 548 29,000  Level FlightAware ADS-B
Tue 05:46:20 AM 41.3358 -77.0428 60° Northeast 475 547 29,000  Level FlightAware ADS-B
Tue 05:46:52 AM 41.3708 -76.9617 60° Northeast 478 550 29,000  Level FlightAware ADS-B
Tue 05:47:23 AM 41.4045 -76.8826 60° Northeast 477 549 29,000  Level FlightAware ADS-B
Tue 05:47:53 AM 41.4381 -76.8060 60° Northeast 479 551 29,000  Level FlightAware ADS-B
Tue 05:48:27 AM 41.4750 -76.7188 61° Northeast 480 552 29,000  Level FlightAware ADS-B
Tue 05:48:46 AM 41.4965 -76.6703 59° Northeast 481 554 29,000  Level FlightAware ADS-B
Tue 05:48:57 AM 41.5097 -76.6431 57° Northeast 482 555 29,000  Level FlightAware ADS-B
Tue 05:49:13 AM 41.5324 -76.6087 49° Northeast 486 559 29,000  Level FlightAware ADS-B
Tue 05:49:25 AM 41.5520 -76.5834 44° Northeast 491 565 29,000  Level FlightAware ADS-B
Tue 05:49:31 AM 41.5641 -76.5697 40° Northeast 496 571 29,000  Level FlightAware ADS-B
Tue 05:49:46 AM 41.5917 -76.5432 36° Northeast 508 585 29,000  Level FlightAware ADS-B
Tue 05:50:16 AM 41.6556 -76.4970 28° Northeast 531 611 29,000  Level FlightAware ADS-B
Tue 05:51:08 AM 41.7712 -76.4143 28° Northeast 554 638 29,000  Level FlightAware ADS-B
Tue 05:51:39 AM 41.8422 -76.3639 28° Northeast 558 642 29,000 -164 Level FlightAware ADS-B
Tue 05:52:21 AM 41.9372 -76.2956 28° Northeast 550 633 28,800 -1,103 Descending FlightAware ADS-B
Tue 05:53:06 AM 42.0210 -76.2350 28° Northeast 537 618 27,400 -2,442 Descending FlightAware ADS-B
Tue 05:53:47 AM 42.1050 -76.1730 29° Northeast 524 603 25,300 -2,372 Descending FlightAware ADS-B
Tue 05:54:32 AM 42.1870 -76.0530 47° Northeast 484 557 24,000 -918 Descending FlightAware ADS-B
Tue 05:55:12 AM 42.2260 -75.9420 65° Northeast 505 581 24,000  Level FlightAware ADS-B
Tue 05:55:54 AM 42.2680 -75.8210 65° Northeast 512 589 24,000  Level FlightAware ADS-B
Tue 05:56:36 AM 42.3070 -75.6970 67° East 508 585 24,000  Level FlightAware ADS-B
Tue 05:57:20 AM 42.3410 -75.5670 70° East 498 573 24,000 -565 Level FlightAware ADS-B
Tue 05:58:01 AM 42.3700 -75.4470 72° East 488 562 23,200 -1,829 Descending FlightAware ADS-B
Tue 05:58:42 AM 42.3980 -75.3280 72° East 482 555 21,500 -2,278 Descending FlightAware ADS-B
Tue 05:59:20 AM 42.4230 -75.2230 72° East 477 549 20,200 -1,000 Descending FlightAware ADS-B
Tue 06:00:00 AM 42.4460 -75.1260 72° East 477 549 20,200  Level FlightAware ADS-B
Tue 06:00:48 AM 42.4740 -75.0100 72° East 477 549 20,200  Level FlightAware ADS-B
Tue 06:01:24 AM 42.4950 -74.9230 72° East 477 549 20,200  Level FlightAware ADS-B
Tue 06:02:13 AM 42.5230 -74.8040 72° East 477 549 20,200  Level FlightAware ADS-B
Tue 06:02:51 AM 42.5450 -74.7120 72° East 477 549 20,200 -4,871 Level FlightAware ADS-B
Tue 06:03:54 AM 42.5642 -74.5486 72° East 316 364 12,000 -4,548 Descending Boston Center
Tue 06:04:55 AM 42.5622 -74.4358 91° East 288 331 10,800 -1,190 Descending Boston Center
Tue 06:05:55 AM 42.5619 -74.3286 90° East 286 329 9,600 -1,438 Descending Boston Center
Tue 06:06:56 AM 42.5614 -74.2217 90° East 290 334 7,900 -1,579 Descending Boston Center
Tue 06:08:08 AM 42.5594 -74.0892 91° East 287 330 6,100 -1,388 Descending Boston Center
Tue 06:08:57 AM 42.5606 -74.0100 89° East 268 308 5,100 -1,527 Descending Boston Center
Tue 06:09:58 AM 42.5575 -73.9142 92° East 239 275 3,300 -1,041 Descending Boston Center
Tue 06:10:58 AM 42.5606 -73.8325 87° East 203 234 3,000 -397 Descending Boston Center
Tue 06:11:59 AM 42.6047 -73.8053 24° Northeast 189 217 2,500 -541 Descending Boston Center
Tue 06:13:00 AM 42.6506 -73.8036 North 157 181 1,900 -645 Descending Boston Center
Tue 06:14:00 AM 42.6903 -73.8044 359° North 141 162 1,200 -694 Descending Boston Center
Tue 06:15:01 AM 42.7278 -73.8081 356° North 129 148 500 -689 Descending Boston Center
Tue 06:18:00 AM 42.7333 -73.8000 North  Level FlightAware Approximate
Tue 06:25:00 AM 42.7491 -73.8020 North  Level Estimated

Login

Don't have an account? Register now (free) for customized features, flight alerts, and more!